Time;durP1;ratioP1;P1;durP2;ratioP2;P2;SDS_P1;SDS_P2;PMS_P1;PMS_P2;Temp;Humidity;BMP_temperature;BMP_pressure;BME280_temperature;BME280_humidity;BME280_pressure;Samples;Min_cycle;Max_cycle;Signal;HPM_P1;HPM_P2
2021/09/07 00:00:54;;;;;;;0.80;0.80;;;11.40;99.90;;;;;;5070862;28;20203;-76
2021/09/07 00:03:19;;;;;;;0.75;0.75;;;11.40;99.90;;;;;;5071245;28;20208;-75
2021/09/07 00:05:45;;;;;;;0.70;0.70;;;11.40;99.90;;;;;;5084716;28;20245;-76
2021/09/07 00:08:11;;;;;;;1.02;0.80;;;11.40;99.90;;;;;;5075318;28;20671;-76
2021/09/07 00:10:37;;;;;;;0.77;0.77;;;11.40;99.90;;;;;;5090808;28;20204;-76
2021/09/07 00:13:02;;;;;;;1.40;1.05;;;11.50;99.90;;;;;;5075069;28;20727;-75
2021/09/07 00:15:28;;;;;;;0.80;0.80;;;11.50;99.90;;;;;;5091988;28;20199;-76
2021/09/07 00:17:54;;;;;;;0.60;0.60;;;11.50;99.90;;;;;;5073792;28;20204;-78
2021/09/07 00:20:22;;;;;;;0.60;0.60;;;11.50;99.90;;;;;;5090586;28;20313;-75
2021/09/07 00:22:49;;;;;;;1.50;1.40;;;11.60;99.90;;;;;;5071677;28;20201;-76
2021/09/07 00:25:14;;;;;;;0.60;0.60;;;11.60;99.90;;;;;;5082393;28;20670;-75
2021/09/07 00:27:40;;;;;;;0.60;0.60;;;11.60;99.90;;;;;;5074872;28;20253;-76
2021/09/07 00:30:06;;;;;;;0.65;0.65;;;11.60;99.90;;;;;;5073801;28;20204;-75
2021/09/07 00:32:32;;;;;;;0.70;0.70;;;11.70;99.90;;;;;;5090396;28;20243;-76
2021/09/07 00:34:58;;;;;;;0.98;0.98;;;11.70;99.90;;;;;;5091065;28;20228;-76
2021/09/07 00:37:23;;;;;;;0.60;0.60;;;11.70;99.90;;;;;;5091808;28;20196;-76
2021/09/07 00:39:49;;;;;;;0.80;0.80;;;11.70;99.90;;;;;;5090582;28;20228;-76
2021/09/07 00:42:15;;;;;;;0.60;0.60;;;11.70;99.90;;;;;;5091914;28;20200;-76
2021/09/07 00:44:41;;;;;;;0.65;0.65;;;11.70;99.90;;;;;;5074095;28;20249;-76
2021/09/07 00:47:07;;;;;;;0.68;0.68;;;11.80;99.90;;;;;;5092109;28;20675;-76
2021/09/07 00:49:36;;;;;;;0.60;0.60;;;11.80;99.90;;;;;;5092054;28;20275;-76
2021/09/07 00:52:03;;;;;;;0.60;0.60;;;11.80;99.90;;;;;;5073088;28;20193;-75
2021/09/07 00:54:33;;;;;;;0.63;0.63;;;11.90;99.90;;;;;;5072111;28;20203;-76
2021/09/07 00:57:02;;;;;;;0.60;0.60;;;11.90;99.90;;;;;;5090880;28;20364;-75
2021/09/07 00:59:32;;;;;;;0.77;0.77;;;11.90;99.90;;;;;;5074832;28;20681;-76
2021/09/07 01:01:58;;;;;;;0.60;0.60;;;11.90;99.90;;;;;;5078717;28;20208;-76
2021/09/07 01:04:24;;;;;;;0.60;0.60;;;11.90;99.90;;;;;;5094259;28;20222;-76
2021/09/07 01:06:50;;;;;;;0.60;0.60;;;11.80;99.90;;;;;;5094653;28;20207;-76
2021/09/07 01:09:16;;;;;;;0.70;0.70;;;11.80;99.90;;;;;;5077269;28;20196;-76
2021/09/07 01:11:41;;;;;;;0.50;0.50;;;11.80;99.90;;;;;;5093945;28;20277;-76
2021/09/07 01:14:07;;;;;;;0.77;0.77;;;11.80;99.90;;;;;;5077154;28;20238;-76
2021/09/07 01:16:33;;;;;;;0.60;0.60;;;11.80;99.90;;;;;;5078203;28;20234;-76
2021/09/07 01:18:59;;;;;;;1.40;1.23;;;11.80;99.90;;;;;;5094278;28;20200;-76
2021/09/07 01:21:26;;;;;;;0.63;0.63;;;11.80;99.90;;;;;;5093622;28;20236;-75
2021/09/07 01:23:52;;;;;;;0.55;0.55;;;11.90;99.90;;;;;;5096371;28;20261;-75
2021/09/07 01:26:20;;;;;;;0.60;0.60;;;11.90;99.90;;;;;;5095369;28;20207;-76
2021/09/07 01:28:47;;;;;;;0.90;0.90;;;11.90;99.90;;;;;;5095274;28;20721;-76
2021/09/07 01:31:13;;;;;;;0.60;0.60;;;11.90;99.90;;;;;;5093855;28;20196;-76
2021/09/07 01:33:40;;;;;;;0.60;0.60;;;12.00;99.90;;;;;;5094914;28;20239;-75
2021/09/07 01:36:06;;;;;;;0.65;0.65;;;11.90;99.90;;;;;;5093744;28;20196;-76
2021/09/07 01:38:33;;;;;;;0.80;0.80;;;12.00;99.90;;;;;;5075407;28;20196;-75
2021/09/07 01:40:59;;;;;;;0.60;0.60;;;12.00;99.90;;;;;;5075892;28;20327;-75
2021/09/07 01:43:25;;;;;;;0.50;0.50;;;12.00;99.90;;;;;;5093640;28;20197;-76
2021/09/07 01:45:53;;;;;;;0.70;0.70;;;12.00;99.90;;;;;;5093735;28;20212;-76
2021/09/07 01:48:19;;;;;;;0.82;0.82;;;12.00;99.90;;;;;;5076881;28;20539;-75
2021/09/07 01:50:45;;;;;;;2.20;0.95;;;12.00;99.90;;;;;;5077933;28;20204;-75
2021/09/07 01:53:11;;;;;;;0.70;0.70;;;12.00;99.90;;;;;;5095289;28;20200;-76
2021/09/07 01:55:37;;;;;;;1.75;1.00;;;12.00;99.90;;;;;;5093188;28;20215;-76
2021/09/07 01:58:03;;;;;;;5.88;1.73;;;12.10;99.90;;;;;;5076367;28;20655;-76
2021/09/07 02:00:29;;;;;;;0.85;0.80;;;12.00;99.90;;;;;;5091500;28;20212;-75
2021/09/07 02:02:54;;;;;;;0.70;0.70;;;12.10;99.90;;;;;;5092023;28;20215;-75
2021/09/07 02:05:20;;;;;;;0.60;0.60;;;12.10;99.90;;;;;;5092999;28;20220;-76
2021/09/07 02:07:46;;;;;;;0.60;0.60;;;12.10;99.90;;;;;;5093042;28;20231;-75
2021/09/07 02:10:12;;;;;;;0.50;0.50;;;12.10;99.90;;;;;;5093547;28;20204;-76
2021/09/07 02:12:38;;;;;;;0.85;0.73;;;12.10;99.90;;;;;;5092779;28;20682;-76
2021/09/07 02:15:05;;;;;;;1.10;0.90;;;12.10;99.90;;;;;;5094228;28;20266;-76
2021/09/07 02:17:31;;;;;;;0.68;0.68;;;12.10;99.90;;;;;;5093874;28;20222;-76
2021/09/07 02:19:56;;;;;;;0.63;0.63;;;12.10;99.90;;;;;;5094311;28;20212;-76
2021/09/07 02:22:22;;;;;;;0.88;0.88;;;12.10;99.90;;;;;;5092445;28;20200;-76
2021/09/07 02:24:48;;;;;;;1.02;0.93;;;12.10;99.90;;;;;;5094017;28;20244;-76
2021/09/07 02:27:14;;;;;;;0.60;0.60;;;12.10;99.90;;;;;;5075932;28;20196;-76
2021/09/07 02:29:41;;;;;;;0.68;0.68;;;12.10;99.90;;;;;;5092560;28;20690;-75
2021/09/07 02:32:07;;;;;;;0.57;0.57;;;12.10;99.90;;;;;;5092774;28;20200;-76
2021/09/07 02:34:33;;;;;;;0.95;0.95;;;12.10;99.90;;;;;;5056767;28;20276;-76
2021/09/07 02:36:59;;;;;;;0.50;0.50;;;12.10;99.90;;;;;;5075448;28;20203;-75
2021/09/07 02:39:25;;;;;;;0.70;0.70;;;12.10;99.90;;;;;;5076444;28;20212;-75
2021/09/07 02:41:51;;;;;;;0.75;0.75;;;12.10;99.90;;;;;;5093278;28;20211;-76
2021/09/07 02:44:18;;;;;;;0.77;0.77;;;12.10;99.90;;;;;;5092527;28;20273;-76
2021/09/07 02:46:44;;;;;;;0.93;0.90;;;12.10;99.90;;;;;;5094852;28;20200;-76
2021/09/07 02:49:11;;;;;;;0.50;0.50;;;12.20;99.90;;;;;;5094147;28;20211;-75
2021/09/07 02:51:36;;;;;;;0.60;0.60;;;12.20;99.90;;;;;;5077772;28;20208;-76
2021/09/07 02:54:02;;;;;;;1.25;1.15;;;12.20;99.90;;;;;;5093619;28;20605;-76
2021/09/07 02:56:28;;;;;;;0.55;0.55;;;12.10;99.90;;;;;;5091999;28;20203;-76
2021/09/07 02:58:54;;;;;;;0.50;0.50;;;12.10;99.90;;;;;;5092080;28;20576;-76
2021/09/07 03:01:19;;;;;;;0.90;0.90;;;12.10;99.90;;;;;;5091254;28;20724;-76
2021/09/07 03:03:45;;;;;;;0.60;0.60;;;12.10;99.90;;;;;;5093004;28;20563;-76
2021/09/07 03:06:11;;;;;;;0.73;0.73;;;12.10;99.90;;;;;;5093313;28;20219;-76
2021/09/07 03:08:36;;;;;;;0.75;0.75;;;12.20;99.90;;;;;;5079702;28;20283;-76
2021/09/07 03:11:02;;;;;;;0.55;0.55;;;12.20;99.90;;;;;;5092045;28;20208;-76
2021/09/07 03:13:28;;;;;;;0.73;0.70;;;12.20;99.90;;;;;;5093044;28;20200;-76
2021/09/07 03:15:54;;;;;;;0.98;0.93;;;12.20;99.90;;;;;;5076191;28;20257;-76
2021/09/07 03:18:19;;;;;;;0.75;0.70;;;12.20;99.90;;;;;;5093161;28;20207;-75
2021/09/07 03:20:45;;;;;;;0.60;0.60;;;12.20;99.90;;;;;;5091691;28;20210;-75
2021/09/07 03:23:11;;;;;;;0.57;0.57;;;12.30;99.90;;;;;;5092807;28;20204;-76
2021/09/07 03:25:37;;;;;;;0.80;0.80;;;12.30;99.90;;;;;;5074862;28;20326;-75
2021/09/07 03:28:03;;;;;;;0.57;0.57;;;12.30;99.90;;;;;;5056394;28;20193;-75
2021/09/07 03:30:29;;;;;;;0.50;0.50;;;12.30;99.90;;;;;;5091796;28;20196;-74
2021/09/07 03:32:54;;;;;;;0.70;0.70;;;12.30;99.90;;;;;;5107119;28;20227;-76
2021/09/07 03:35:20;;;;;;;0.70;0.70;;;12.30;99.90;;;;;;5093167;28;20287;-75
2021/09/07 03:37:46;;;;;;;0.60;0.60;;;12.20;99.90;;;;;;5091440;28;20203;-75
2021/09/07 03:40:13;;;;;;;0.60;0.60;;;12.20;99.90;;;;;;5091482;28;20215;-76
2021/09/07 03:42:39;;;;;;;0.75;0.75;;;12.20;99.90;;;;;;5091129;28;21403;-76
2021/09/07 03:45:08;;;;;;;0.90;0.90;;;12.20;99.90;;;;;;5091477;28;20220;-76
2021/09/07 03:47:34;;;;;;;0.63;0.63;;;12.30;99.90;;;;;;5092485;28;20214;-76
2021/09/07 03:50:00;;;;;;;0.60;0.60;;;12.30;99.90;;;;;;5091397;28;20208;-76
2021/09/07 03:52:25;;;;;;;0.80;0.80;;;12.30;99.90;;;;;;5075538;28;20245;-76
2021/09/07 03:54:51;;;;;;;0.50;0.50;;;12.30;99.90;;;;;;5091182;28;20200;-75
2021/09/07 03:57:17;;;;;;;0.77;0.77;;;12.30;99.90;;;;;;5092472;28;20211;-74
2021/09/07 03:59:42;;;;;;;1.08;1.02;;;12.30;99.90;;;;;;5090942;28;20204;-77
2021/09/07 04:02:08;;;;;;;0.57;0.57;;;12.30;99.90;;;;;;5074182;28;20245;-74
2021/09/07 04:04:34;;;;;;;1.00;0.88;;;12.30;99.90;;;;;;5090740;28;20325;-74
2021/09/07 04:07:00;;;;;;;0.50;0.50;;;12.30;99.90;;;;;;5074087;28;20215;-75
2021/09/07 04:09:26;;;;;;;0.80;0.80;;;12.30;99.90;;;;;;5092093;28;20208;-74
2021/09/07 04:11:52;;;;;;;0.85;0.85;;;12.30;99.90;;;;;;5091203;28;20216;-76
2021/09/07 04:14:18;;;;;;;1.05;1.05;;;12.30;99.90;;;;;;5092541;28;20567;-76
2021/09/07 04:16:44;;;;;;;0.77;0.77;;;12.30;99.90;;;;;;5073521;28;20675;-77
2021/09/07 04:19:10;;;;;;;1.13;1.02;;;12.40;99.90;;;;;;5075508;28;20238;-76
2021/09/07 04:21:36;;;;;;;0.68;0.68;;;12.40;99.90;;;;;;5075513;28;20670;-76
2021/09/07 04:24:04;;;;;;;0.77;0.77;;;12.40;99.90;;;;;;5092117;28;20222;-76
2021/09/07 04:26:30;;;;;;;0.63;0.63;;;12.40;99.90;;;;;;5074928;28;20204;-75
2021/09/07 04:28:57;;;;;;;0.65;0.65;;;12.40;99.90;;;;;;5090923;28;20670;-76
2021/09/07 04:31:23;;;;;;;0.90;0.90;;;12.50;99.90;;;;;;5074801;28;20277;-76
2021/09/07 04:33:49;;;;;;;0.70;0.70;;;12.50;99.90;;;;;;5092912;28;20235;-76
2021/09/07 04:36:14;;;;;;;0.70;0.70;;;12.50;99.90;;;;;;5097512;28;20204;-76
2021/09/07 04:38:40;;;;;;;0.98;0.98;;;12.60;99.90;;;;;;5095291;28;20663;-76
2021/09/07 04:41:06;;;;;;;0.60;0.60;;;12.60;99.90;;;;;;5095081;28;20202;-75
2021/09/07 04:43:32;;;;;;;0.82;0.82;;;12.60;99.90;;;;;;5095507;28;20609;-76
2021/09/07 04:45:58;;;;;;;0.73;0.73;;;12.70;99.90;;;;;;5095886;28;20212;-76
2021/09/07 04:48:24;;;;;;;1.13;0.82;;;12.70;99.90;;;;;;5077567;28;20273;-75
2021/09/07 04:50:49;;;;;;;0.73;0.73;;;12.80;99.90;;;;;;5095397;28;20215;-76
2021/09/07 04:53:15;;;;;;;0.60;0.60;;;12.80;99.90;;;;;;5078263;28;20709;-76
2021/09/07 04:55:41;;;;;;;0.50;0.50;;;12.90;99.90;;;;;;5079229;28;20195;-75
2021/09/07 04:58:07;;;;;;;1.05;0.95;;;12.90;99.90;;;;;;5096071;28;20211;-75
2021/09/07 05:00:33;;;;;;;0.80;0.80;;;12.90;99.90;;;;;;5095656;28;20675;-75
2021/09/07 05:02:58;;;;;;;0.70;0.70;;;12.90;99.90;;;;;;5093480;28;20699;-75
2021/09/07 05:05:24;;;;;;;0.50;0.50;;;12.90;99.90;;;;;;5094300;28;20251;-76
2021/09/07 05:07:50;;;;;;;0.50;0.50;;;12.90;99.90;;;;;;5094550;28;20204;-75
2021/09/07 05:10:15;;;;;;;0.50;0.50;;;12.90;99.90;;;;;;5076720;28;20196;-76
2021/09/07 05:12:41;;;;;;;0.85;0.85;;;12.90;99.90;;;;;;5095799;28;20211;-76
2021/09/07 05:15:08;;;;;;;0.93;0.93;;;13.00;99.90;;;;;;5096262;28;20203;-76
2021/09/07 05:17:34;;;;;;;3.13;1.48;;;13.00;99.90;;;;;;5077997;28;20208;-75
2021/09/07 05:19:59;;;;;;;0.50;0.50;;;13.00;99.90;;;;;;5095455;28;20264;-76
2021/09/07 05:22:25;;;;;;;0.70;0.70;;;13.10;99.90;;;;;;5095865;28;20199;-75
2021/09/07 05:24:51;;;;;;;0.55;0.55;;;13.10;99.90;;;;;;5078462;28;20216;-75
2021/09/07 05:27:17;;;;;;;1.00;0.90;;;13.20;99.90;;;;;;5079883;28;20210;-75
2021/09/07 05:29:43;;;;;;;1.02;0.93;;;13.20;99.90;;;;;;5107626;28;20199;-76
2021/09/07 05:32:10;;;;;;;1.45;1.33;;;13.20;99.90;;;;;;5101274;28;20204;-73
2021/09/07 05:34:37;;;;;;;0.55;0.55;;;13.30;99.90;;;;;;5095325;28;20200;-73
2021/09/07 05:37:03;;;;;;;0.60;0.60;;;13.30;99.90;;;;;;5078120;28;20727;-76
2021/09/07 05:39:28;;;;;;;0.60;0.60;;;13.30;99.90;;;;;;5085219;28;20286;-76
2021/09/07 05:41:54;;;;;;;0.70;0.70;;;13.40;99.90;;;;;;5102993;28;20230;-75
2021/09/07 05:44:22;;;;;;;0.90;0.90;;;13.40;99.90;;;;;;5076539;28;20208;-76
2021/09/07 05:46:48;;;;;;;0.77;0.75;;;13.40;99.90;;;;;;5093951;28;20598;-75
2021/09/07 05:49:14;;;;;;;0.50;0.50;;;13.40;99.90;;;;;;5095199;28;20196;-76
2021/09/07 05:51:41;;;;;;;0.65;0.65;;;13.50;99.90;;;;;;5076375;28;20733;-76
2021/09/07 05:54:07;;;;;;;0.70;0.70;;;13.50;99.90;;;;;;5093572;28;20199;-76
2021/09/07 05:56:34;;;;;;;0.60;0.60;;;13.50;99.90;;;;;;5094765;28;20207;-75
2021/09/07 05:58:59;;;;;;;0.50;0.50;;;13.50;99.90;;;;;;5093683;28;20192;-76
2021/09/07 06:01:26;;;;;;;0.85;0.85;;;13.50;99.90;;;;;;5074755;28;20208;-76
2021/09/07 06:03:51;;;;;;;0.55;0.55;;;13.60;99.90;;;;;;5076845;28;20204;-76
2021/09/07 06:06:17;;;;;;;1.38;1.10;;;13.60;99.90;;;;;;5093580;28;20231;-76
2021/09/07 06:08:43;;;;;;;0.77;0.77;;;13.70;99.90;;;;;;5094977;28;20242;-76
2021/09/07 06:11:09;;;;;;;1.73;1.55;;;13.70;99.90;;;;;;5096705;28;20245;-76
2021/09/07 06:13:35;;;;;;;0.85;0.85;;;13.80;99.90;;;;;;5077332;28;20546;-76
2021/09/07 06:16:01;;;;;;;1.08;0.88;;;14.00;99.90;;;;;;5093972;28;20214;-76
2021/09/07 06:18:27;;;;;;;1.15;0.70;;;14.00;99.90;;;;;;5094540;28;20204;-76
2021/09/07 06:20:54;;;;;;;0.90;0.90;;;14.10;99.90;;;;;;5093077;28;20223;-76
2021/09/07 06:23:20;;;;;;;0.82;0.82;;;14.10;99.90;;;;;;5076745;28;20291;-76
2021/09/07 06:25:45;;;;;;;0.73;0.73;;;14.10;99.90;;;;;;5077220;28;20311;-76
2021/09/07 06:28:11;;;;;;;1.23;1.13;;;14.10;99.90;;;;;;5092954;28;20196;-76
2021/09/07 06:30:37;;;;;;;0.70;0.70;;;14.10;99.90;;;;;;5092534;28;20192;-75
2021/09/07 06:33:02;;;;;;;0.93;0.93;;;14.00;99.90;;;;;;5094221;28;20192;-76
2021/09/07 06:35:28;;;;;;;0.82;0.82;;;14.00;99.90;;;;;;5076820;28;20618;-76
2021/09/07 06:37:54;;;;;;;0.80;0.80;;;14.00;99.90;;;;;;5092973;28;20280;-76
2021/09/07 06:40:21;;;;;;;1.88;1.67;;;14.00;99.90;;;;;;5092542;28;20576;-76
2021/09/07 06:42:48;;;;;;;0.65;0.65;;;14.10;99.90;;;;;;5092467;28;20638;-76
2021/09/07 06:45:14;;;;;;;1.15;0.57;;;14.10;99.90;;;;;;5093924;28;20576;-76
2021/09/07 06:47:40;;;;;;;0.70;0.70;;;14.20;99.90;;;;;;5092112;28;20267;-76
2021/09/07 06:50:06;;;;;;;0.80;0.77;;;14.30;99.90;;;;;;5092884;28;20572;-76
2021/09/07 06:52:32;;;;;;;0.85;0.85;;;14.40;99.90;;;;;;5092392;28;20231;-76
2021/09/07 06:54:58;;;;;;;0.40;0.40;;;14.40;99.90;;;;;;5093257;28;20352;-76
2021/09/07 06:57:26;;;;;;;1.40;1.25;;;14.40;99.90;;;;;;5076229;28;20655;-76
2021/09/07 06:59:53;;;;;;;0.73;0.73;;;14.50;99.90;;;;;;5075897;28;20262;-75
2021/09/07 07:02:19;;;;;;;0.80;0.80;;;14.50;99.90;;;;;;5093669;28;20576;-76
2021/09/07 07:04:45;;;;;;;0.70;0.70;;;14.50;99.90;;;;;;5092036;28;20215;-76
2021/09/07 07:07:12;;;;;;;2.15;0.93;;;14.60;99.90;;;;;;5093731;28;20200;-76
2021/09/07 07:09:37;;;;;;;0.70;0.60;;;14.80;99.90;;;;;;5092060;28;20200;-76
2021/09/07 07:12:04;;;;;;;0.60;0.60;;;14.90;99.90;;;;;;5092097;28;20207;-76
2021/09/07 07:14:30;;;;;;;0.47;0.47;;;14.80;99.90;;;;;;5091728;28;20211;-76
2021/09/07 07:16:55;;;;;;;0.60;0.60;;;14.80;99.90;;;;;;5093536;28;20203;-76
2021/09/07 07:19:21;;;;;;;0.88;0.70;;;14.80;99.90;;;;;;5093256;28;20203;-76
2021/09/07 07:21:48;;;;;;;0.45;0.45;;;14.90;99.90;;;;;;5075564;28;20574;-76
2021/09/07 07:24:16;;;;;;;1.10;0.75;;;15.00;99.90;;;;;;5092761;28;20295;-76
2021/09/07 07:26:45;;;;;;;0.55;0.55;;;15.00;99.90;;;;;;5075425;28;20566;-76
2021/09/07 07:29:12;;;;;;;7.13;2.53;;;15.10;99.90;;;;;;5093073;28;20658;-76
2021/09/07 07:31:39;;;;;;;0.40;0.40;;;15.20;99.90;;;;;;5092093;28;20215;-76
2021/09/07 07:34:05;;;;;;;0.55;0.55;;;15.20;99.90;;;;;;5092260;28;20567;-75
2021/09/07 07:36:33;;;;;;;0.55;0.55;;;15.30;99.90;;;;;;5093148;28;20192;-76
2021/09/07 07:38:59;;;;;;;0.50;0.50;;;15.40;99.90;;;;;;5090984;28;20307;-75
2021/09/07 07:41:25;;;;;;;0.47;0.47;;;15.50;99.90;;;;;;5073408;28;20304;-75
2021/09/07 07:43:51;;;;;;;0.70;0.70;;;15.50;99.90;;;;;;5074628;28;20228;-75
2021/09/07 07:46:17;;;;;;;0.60;0.60;;;15.60;99.90;;;;;;5073964;28;20245;-76
2021/09/07 07:48:42;;;;;;;0.57;0.52;;;15.70;99.90;;;;;;5092265;28;20203;-76
2021/09/07 07:51:09;;;;;;;0.52;0.52;;;15.80;99.90;;;;;;5091785;28;20671;-76
2021/09/07 07:53:36;;;;;;;0.60;0.60;;;15.80;99.90;;;;;;5091044;28;20242;-76
2021/09/07 07:56:03;;;;;;;0.73;0.73;;;15.90;99.90;;;;;;5091202;28;20238;-76
2021/09/07 07:58:28;;;;;;;0.52;0.52;;;16.00;99.90;;;;;;5092311;28;20219;-75
2021/09/07 08:00:55;;;;;;;0.45;0.45;;;16.10;99.90;;;;;;5092538;28;20199;-76
2021/09/07 08:03:20;;;;;;;0.50;0.50;;;16.20;99.90;;;;;;5090637;28;20226;-75
2021/09/07 08:05:46;;;;;;;1.30;0.60;;;16.20;99.90;;;;;;5085103;28;20231;-75
2021/09/07 08:08:12;;;;;;;1.23;0.88;;;16.10;99.90;;;;;;5091792;28;20226;-76
2021/09/07 08:10:39;;;;;;;2.20;1.52;;;16.20;99.90;;;;;;5090668;28;20204;-76
2021/09/07 08:13:06;;;;;;;1.40;1.30;;;16.20;99.90;;;;;;5091208;28;20563;-76
2021/09/07 08:15:31;;;;;;;0.63;0.63;;;16.30;99.90;;;;;;5090630;28;20223;-75
2021/09/07 08:17:57;;;;;;;0.60;0.60;;;16.30;99.90;;;;;;5091251;28;20247;-75
2021/09/07 08:20:23;;;;;;;0.75;0.75;;;16.30;99.90;;;;;;5092348;28;20570;-77
2021/09/07 08:22:49;;;;;;;0.40;0.40;;;16.40;99.90;;;;;;5092503;28;20214;-76
2021/09/07 08:25:15;;;;;;;1.27;1.15;;;16.70;99.90;;;;;;5088432;28;20718;-76
2021/09/07 08:27:41;;;;;;;1.58;0.93;;;17.00;99.90;;;;;;5075762;28;20208;-75
2021/09/07 08:30:07;;;;;;;1.42;0.85;;;17.40;99.90;;;;;;5091496;28;20207;-76
2021/09/07 08:32:33;;;;;;;4.70;1.30;;;17.80;99.90;;;;;;5090516;28;20208;-76
2021/09/07 08:34:58;;;;;;;0.88;0.88;;;18.10;99.90;;;;;;5092047;28;20208;-76
2021/09/07 08:37:24;;;;;;;0.65;0.65;;;18.20;99.90;;;;;;5091025;28;20203;-76
2021/09/07 08:39:50;;;;;;;0.60;0.50;;;18.40;99.90;;;;;;5091949;28;20204;-76
2021/09/07 08:42:15;;;;;;;2.10;1.33;;;18.50;99.90;;;;;;5092026;28;20222;-76
2021/09/07 08:44:46;;;;;;;0.35;0.35;;;18.70;99.90;;;;;;5091187;28;20218;-76
2021/09/07 08:47:17;;;;;;;0.93;0.90;;;18.50;99.90;;;;;;5093762;28;20203;-77
2021/09/07 08:49:45;;;;;;;1.05;0.73;;;18.40;99.90;;;;;;5074447;28;20675;-76
2021/09/07 08:52:14;;;;;;;4.00;1.10;;;18.40;99.90;;;;;;5091560;28;20196;-76
2021/09/07 08:54:42;;;;;;;0.52;0.52;;;18.30;99.90;;;;;;5091892;28;20212;-76
2021/09/07 08:57:08;;;;;;;2.70;0.95;;;18.30;99.90;;;;;;5090746;28;20200;-75
2021/09/07 08:59:35;;;;;;;0.77;0.63;;;18.20;99.90;;;;;;5091688;28;20218;-76
2021/09/07 09:02:15;;;;;;;0.40;0.40;;;18.20;99.90;;;;;;5091810;28;20564;-75
2021/09/07 09:04:46;;;;;;;0.38;0.38;;;18.10;99.90;;;;;;5090036;28;20215;-77
2021/09/07 09:07:19;;;;;;;3.30;0.80;;;18.20;99.90;;;;;;5090511;28;20204;-76
2021/09/07 09:09:45;;;;;;;0.40;0.40;;;18.20;99.90;;;;;;5073509;28;20197;-76
2021/09/07 09:12:11;;;;;;;0.82;0.82;;;18.30;99.90;;;;;;5091703;28;20219;-76
2021/09/07 09:14:43;;;;;;;0.90;0.73;;;18.30;99.90;;;;;;5073075;28;20694;-76
2021/09/07 09:17:18;;;;;;;0.55;0.55;;;18.40;99.90;;;;;;5090781;28;20211;-75
2021/09/07 09:20:04;;;;;;;0.50;0.50;;;18.40;99.90;;;;;;5073916;28;20637;-77
2021/09/07 09:22:48;;;;;;;1.95;0.57;;;18.50;99.90;;;;;;5093735;28;20584;-77
2021/09/07 09:25:20;;;;;;;0.30;0.30;;;18.40;99.90;;;;;;5095430;28;20226;-76
2021/09/07 09:28:05;;;;;;;0.80;0.80;;;18.50;99.90;;;;;;5095756;28;20204;-76
2021/09/07 09:30:39;;;;;;;0.50;0.50;;;18.70;99.90;;;;;;5078575;28;20249;-76
2021/09/07 09:33:06;;;;;;;2.53;0.70;;;18.60;99.90;;;;;;5095801;28;20210;-76
2021/09/07 09:35:44;;;;;;;0.60;0.43;;;18.60;99.90;;;;;;5077177;28;20205;-76
2021/09/07 09:38:10;;;;;;;0.55;0.55;;;18.70;99.90;;;;;;5095634;28;20290;-77
2021/09/07 09:40:36;;;;;;;0.47;0.47;;;19.10;99.90;;;;;;5093818;28;20283;-76
2021/09/07 09:43:22;;;;;;;1.23;1.13;;;19.80;99.90;;;;;;5088912;28;20675;-76
2021/09/07 09:45:48;;;;;;;0.50;0.50;;;20.40;99.90;;;;;;5093199;28;20700;-76
2021/09/07 09:48:40;;;;;;;0.70;0.70;;;20.60;99.90;;;;;;5076941;28;20677;-76
2021/09/07 09:51:06;;;;;;;0.30;0.30;;;20.80;99.90;;;;;;5071864;28;20231;-77
2021/09/07 09:53:34;;;;;;;0.50;0.50;;;21.00;99.90;;;;;;5094643;28;20220;-74
2021/09/07 09:56:01;;;;;;;0.65;0.52;;;21.40;99.90;;;;;;5095716;28;20289;-77
2021/09/07 09:58:27;;;;;;;0.50;0.50;;;21.90;99.90;;;;;;5076594;28;20203;-76
2021/09/07 10:00:53;;;;;;;0.50;0.50;;;22.30;99.90;;;;;;5093105;28;20211;-77
2021/09/07 10:03:19;;;;;;;9.57;0.40;;;22.10;99.90;;;;;;5093290;28;20204;-76
2021/09/07 10:05:46;;;;;;;1.05;0.68;;;22.00;99.90;;;;;;5094596;28;20228;-77
2021/09/07 10:08:15;;;;;;;1.38;0.85;;;21.70;99.90;;;;;;5093661;28;20341;-76
2021/09/07 10:11:01;;;;;;;0.80;0.80;;;21.60;99.90;;;;;;5093111;28;20197;-76
2021/09/07 10:13:29;;;;;;;0.60;0.60;;;21.50;99.90;;;;;;5093226;28;20200;-76
2021/09/07 10:18:35;;;;;;;3.13;1.83;;;21.40;99.90;;;;;;5092905;28;20212;-75
2021/09/07 10:24:14;;;;;;;2.83;1.17;;;21.80;99.90;;;;;;5094292;28;20204;-76
2021/09/07 10:26:39;;;;;;;0.47;0.47;;;22.30;99.90;;;;;;5094730;28;20240;-76
2021/09/07 10:29:11;;;;;;;0.50;0.50;;;22.40;99.90;;;;;;5077237;28;20200;-76
2021/09/07 10:31:44;;;;;;;8.65;2.25;;;22.20;99.90;;;;;;5093095;28;20215;-76
2021/09/07 10:34:13;;;;;;;0.63;0.63;;;22.00;99.90;;;;;;5092797;28;20200;-76
2021/09/07 10:37:04;;;;;;;1.85;1.05;;;21.60;99.90;;;;;;5092697;28;20282;-77
2021/09/07 10:39:41;;;;;;;1.17;0.77;;;21.60;99.90;;;;;;5077178;28;20607;-75
2021/09/07 10:42:13;;;;;;;0.40;0.40;;;21.80;99.90;;;;;;5093732;28;20196;-76
2021/09/07 10:44:43;;;;;;;1.05;0.63;;;22.00;99.90;;;;;;5077524;28;20231;-76
2021/09/07 10:47:12;;;;;;;4.13;0.45;;;22.10;99.90;;;;;;5094429;28;20239;-77
2021/09/07 10:49:52;;;;;;;0.40;0.40;;;22.20;99.90;;;;;;5075729;28;21692;-77
2021/09/07 10:52:22;;;;;;;0.88;0.65;;;22.30;99.90;;;;;;5093567;28;20659;-76
2021/09/07 10:55:07;;;;;;;1.65;0.45;;;22.60;99.90;;;;;;5076041;28;20221;-76
2021/09/07 10:57:36;;;;;;;0.30;0.30;;;23.10;99.90;;;;;;5092778;28;20676;-75
2021/09/07 11:00:21;;;;;;;0.77;0.57;;;23.30;99.90;;;;;;5076817;28;20188;-76
2021/09/07 11:02:53;;;;;;;0.43;0.35;;;23.00;99.90;;;;;;5073178;28;20200;-74
2021/09/07 11:05:25;;;;;;;0.77;0.77;;;23.10;99.90;;;;;;5075269;28;20570;-75
2021/09/07 11:08:15;;;;;;;0.55;0.55;;;23.50;99.90;;;;;;5093184;28;20297;-76
2021/09/07 11:10:52;;;;;;;0.43;0.40;;;24.00;99.90;;;;;;5058411;28;20200;-75
2021/09/07 11:13:22;;;;;;;0.50;0.50;;;24.20;99.90;;;;;;5075352;28;20202;-75
2021/09/07 11:15:48;;;;;;;0.85;0.57;;;24.50;99.90;;;;;;5058284;28;20200;-75
2021/09/07 11:18:20;;;;;;;2.33;0.75;;;24.30;99.90;;;;;;5093541;28;20200;-75
2021/09/07 11:20:47;;;;;;;0.20;0.20;;;24.50;99.90;;;;;;5074590;28;20331;-75
2021/09/07 11:23:19;;;;;;;0.43;0.43;;;24.70;99.90;;;;;;5091721;28;20723;-77
2021/09/07 11:26:05;;;;;;;0.60;0.50;;;24.70;99.90;;;;;;5091024;28;20219;-77
2021/09/07 11:28:32;;;;;;;0.82;0.50;;;24.70;99.90;;;;;;5075576;28;20381;-76
2021/09/07 11:31:00;;;;;;;0.52;0.38;;;24.60;99.90;;;;;;5091976;28;20660;-76
2021/09/07 11:33:28;;;;;;;5.15;1.48;;;24.50;99.90;;;;;;5091658;28;20203;-76
2021/09/07 11:36:12;;;;;;;0.28;0.28;;;24.40;99.90;;;;;;5092293;28;20226;-77
2021/09/07 11:38:43;;;;;;;0.20;0.20;;;24.60;99.90;;;;;;5072642;28;20208;-77
2021/09/07 11:41:16;;;;;;;0.40;0.40;;;24.70;99.90;;;;;;5091166;28;20196;-76
2021/09/07 11:43:48;;;;;;;0.30;0.30;;;25.20;99.90;;;;;;5091253;28;20719;-76
2021/09/07 11:46:21;;;;;;;0.30;0.30;;;25.30;99.90;;;;;;5091496;28;20299;-76
2021/09/07 11:48:51;;;;;;;0.35;0.35;;;25.50;99.90;;;;;;5077815;28;20196;-75
2021/09/07 11:51:19;;;;;;;0.47;0.40;;;25.30;99.90;;;;;;5076835;28;20199;-76
2021/09/07 11:53:51;;;;;;;0.40;0.40;;;25.00;99.90;;;;;;5093636;28;20204;-76
2021/09/07 11:56:27;;;;;;;0.52;0.52;;;24.50;99.90;;;;;;5091905;28;20204;-77
2021/09/07 11:59:11;;;;;;;0.77;0.60;;;24.00;99.90;;;;;;5091423;28;20203;-76
2021/09/07 12:01:45;;;;;;;0.50;0.50;;;23.60;99.90;;;;;;5092028;28;20693;-75
2021/09/07 12:04:17;;;;;;;0.57;0.57;;;23.40;99.90;;;;;;5092355;28;20283;-75
2021/09/07 12:06:45;;;;;;;1.40;0.63;;;23.40;99.90;;;;;;5069136;28;22279;-75
2021/09/07 12:09:26;;;;;;;0.60;0.52;;;23.00;99.90;;;;;;5069922;28;20270;-77
2021/09/07 12:12:00;;;;;;;0.38;0.38;;;22.90;99.90;;;;;;5054005;28;20212;-76
2021/09/07 12:14:27;;;;;;;0.45;0.40;;;22.70;99.90;;;;;;5070847;28;20211;-76
2021/09/07 12:17:05;;;;;;;0.50;0.50;;;22.60;99.90;;;;;;5071097;28;20672;-76
2021/09/07 12:19:34;;;;;;;0.20;0.20;;;22.70;99.90;;;;;;5053190;28;20272;-77
2021/09/07 12:22:27;;;;;;;1.65;1.08;;;22.60;99.90;;;;;;5070160;28;20193;-76
2021/09/07 12:25:13;;;;;;;0.13;0.13;;;22.50;99.90;;;;;;5071067;28;20690;-76
2021/09/07 12:27:47;;;;;;;2.15;0.47;;;22.50;99.90;;;;;;5070551;28;20252;-77
2021/09/07 12:30:17;;;;;;;0.20;0.20;;;22.60;99.90;;;;;;5071839;28;20208;-77
2021/09/07 12:33:07;;;;;;;0.28;0.28;;;22.80;99.90;;;;;;5070674;28;20270;-76
2021/09/07 12:35:43;;;;;;;1.33;0.75;;;22.80;99.90;;;;;;5064033;28;20720;-76
2021/09/07 12:38:14;;;;;;;0.38;0.28;;;22.40;99.90;;;;;;5070770;28;20207;-76
2021/09/07 12:41:02;;;;;;;0.30;0.30;;;22.40;99.90;;;;;;5070588;28;20213;-76
2021/09/07 12:43:30;;;;;;;0.95;0.70;;;22.40;99.90;;;;;;5071496;28;20213;-77
2021/09/07 12:46:00;;;;;;;0.20;0.20;;;22.30;99.90;;;;;;5073223;28;20272;-76
2021/09/07 12:48:29;;;;;;;3.20;1.15;;;22.40;99.90;;;;;;5074435;28;20666;-78
2021/09/07 12:50:57;;;;;;;0.43;0.43;;;22.30;99.90;;;;;;5074175;28;20215;-76
2021/09/07 12:53:25;;;;;;;0.65;0.60;;;22.40;99.90;;;;;;5073467;28;20192;-76
2021/09/07 12:55:52;;;;;;;0.30;0.30;;;22.40;99.90;;;;;;5074073;28;20284;-76
2021/09/07 12:58:18;;;;;;;0.40;0.40;;;22.40;99.90;;;;;;5075081;28;20192;-76